x

8454000 - Providence, Ri (foxr1) Weather Station

2:30 - Fri 24th Feb 2017 All times are EST. -5 hours from GMT.

  • Wind
    6mph, 8mph gusts
  • Sea Temp 41°f
  • Air Temp 46°f
  • Sea Pressure 1012.1mb
  • 8454000 - Providence, Ri
  • 8454000 - Providence, Ri

More Historic Weather Station data

Upgrade to MSW Pro to gain access to the past 30 days of data for over 8000 Wavebouys and Weather Stations around the globe.

Join Pro

Comparision Forecast

View Surf forecast
   
ven. 02/24 2:30 6 8 mph 1012.1mb 41f 46f
2:24 7
mph
1012.2mb 41f 46f
2:18 3 7 mph 1012.4mb 41f 46f
2:12 7 9 mph 1012.3mb 41f 45f
2:06 6 10 mph 1012.2mb 41f 45f
2:00 9 11 mph 1012.2mb 41f 45f
1:54 9 10 mph 1012.1mb 41f 45f
1:48 8 9 mph 1012.1mb 41f -
1:42 6 8 mph 1012.2mb 41f -
1:36 6 9 mph 1012.3mb 41f -
1:30 7 10 mph 1012.2mb 41f 46f
1:24 8 11 mph 1012.1mb 41f 46f
1:18 11 14 mph 1012mb 41f 46f
1:12 9 11 mph 1012mb 41f 46f
1:06 8 10 mph 1012mb 42f 46f
1:00 9 10 mph 1012mb 42f 46f
12:54 8 10 mph 1012mb 42f 46f
12:48 8 10 mph 1012mb 42f -
12:42 9 11 mph 1012mb 42f -
12:36 9 10 mph 1012.1mb 42f -
12:30 8 10 mph 1012mb 42f 46f
12:24 9 11 mph 1011.9mb 42f 46f
12:18 9 10 mph 1011.8mb 42f 47f
12:12 9 11 mph 1011.8mb 43f 47f
12:06 9 10 mph 1011.8mb 43f 47f
12:00 8 11 mph 1011.7mb 43f 47f
jeu. 02/23 11:54 10 11 mph 1011.6mb 43f 47f
11:48 9 11 mph 1011.7mb 43f 46f
11:42 9 10 mph 1011.6mb 43f 46f
11:36 9 10 mph 1011.7mb 43f 46f
11:30 7 8 mph 1011.7mb 43f 47f
11:24 7 9 mph 1011.6mb 43f 47f
11:18 8 9 mph 1011.5mb 42f 47f
11:12 7 9 mph 1011.4mb 42f 47f
11:06 7 8 mph 1011.4mb 42f 47f
11:00 7 8 mph 1011.4mb 42f 47f
10:54 7 9 mph 1011.4mb 42f 48f
10:48 8 9 mph 1011.3mb 42f 48f
10:42 9 11 mph 1011.3mb 42f 48f
10:36 9 10 mph 1011.3mb 42f 48f
10:30 9 10 mph 1011.3mb 42f 48f
10:24 7 11 mph 1011.3mb 42f 49f
10:18 8 10 mph 1011.3mb 42f 49f
10:12 8 10 mph 1011.3mb 42f 49f
10:06 8 10 mph 1011.3mb 42f 49f
10:00 8 9 mph 1011.2mb 42f 49f
9:54 7 8 mph 1011.1mb 42f 49f
9:48 7 8 mph 1011.1mb 42f 49f
9:42 8
mph
1011.1mb 42f 49f
9:36 6 7 mph 1011.1mb 42f 49f
9:30 5 7 mph 1011.2mb 42f 49f
9:24 6 8 mph 1011.1mb 42f 49f
9:18 8 9 mph 1011mb 42f 49f
9:12 5 7 mph 1011.1mb 42f 49f
9:06 5 8 mph 1011.1mb 42f 49f
9:00 9 10 mph 1011mb 42f 49f
8:54 9 10 mph 1011mb 42f 49f
8:48 7 9 mph 1011mb 42f 50f
8:42 8 10 mph 1010.9mb 42f 50f
8:36 7 9 mph 1010.9mb 42f 50f
8:30 9 10 mph 1010.8mb 42f 50f
8:24 8 9 mph 1010.7mb 42f 51f
8:18 7 8 mph 1010.7mb 42f 51f
8:12 6 8 mph 1010.6mb 42f 54f
8:06 6 8 mph 1010.6mb 42f 54f
8:00 5 16 mph 1010.5mb 42f 54f
7:54 6 9 mph 1010.4mb 42f 53f
7:48 7 10 mph 1010.4mb 42f 53f
7:42 5 13 mph 1010.5mb 42f 53f
7:36 3 6 mph 1010.6mb 42f 50f
7:30 2 5 mph 1010.6mb 42f 49f
7:24 5 9 mph 1010.4mb 42f 48f
7:18 9 10 mph 1010.1mb 42f 48f
7:12 9 13 mph 1009.9mb 42f 48f
7:06 9 10 mph 1010mb 42f 47f
7:00 8
mph
1010.4mb 42f 47f
6:54 6 7 mph 1010.5mb 42f 46f
6:48 6 7 mph 1010.5mb 42f 46f
6:42 6 8 mph 1010.4mb 42f 46f
6:36 7 10 mph 1010.3mb 42f 46f
6:30 9 11 mph 1010mb 42f 46f
6:24 10 14 mph 1009.9mb 42f 46f
6:18 11 16 mph 1009.7mb 42f 46f
6:12 13 15 mph 1009.5mb 42f 46f
6:06 13 15 mph 1009.5mb 42f 46f
6:00 13 16 mph 1009.5mb 41f 46f
5:54 13 14 mph 1009.5mb 41f 46f
5:48 14 16 mph 1009.4mb 41f 47f
5:42 13 15 mph 1009.2mb 41f 47f
5:36 13 15 mph 1009.1mb 41f 48f
5:30 10 16 mph 1008.8mb 41f 49f
5:24 14 17 mph 1008.5mb 41f 49f
5:18 8 17 mph 1008.4mb 41f 55f
5:12 7 14 mph 1008.3mb 41f 57f
5:06 6 15 mph 1008.3mb 41f 58f
5:00 8 17 mph 1008.1mb 41f 58f
4:48 14 21 mph 1008mb 41f 59f
4:42 9 18 mph 1007.9mb 41f 58f
4:36 11 17 mph 1007.7mb 41f 59f
4:30 13 18 mph 1007.6mb 41f 56f
4:24 14 20 mph 1007.6mb 41f 51f
4:18 15 18 mph 1007.6mb 41f 51f
4:12 15 17 mph 1007.7mb 41f 51f
4:06 14 18 mph 1007.8mb 41f 52f
4:00 13 17 mph 1007.7mb 41f 53f
3:54 10 25 mph 1007.6mb 41f 55f
3:48 16 21 mph 1007.6mb 41f 62f
3:42 16 26 mph 1007.7mb 41f 62f
3:36 16 24 mph 1007.6mb 41f 62f
3:30 17 24 mph 1007.6mb 40f 63f
3:24 16 24 mph 1007.7mb 40f 63f
3:18 14 22 mph 1007.7mb 40f 63f
3:12 14 22 mph 1007.7mb 40f 64f
3:06 16 22 mph 1007.7mb 40f 64f
3:00 14 20 mph 1007.7mb 40f 64f
2:54 15 21 mph 1007.7mb 40f 64f
2:48 14 20 mph 1007.8mb 40f 64f
2:42 17 23 mph 1007.9mb 40f 64f
2:36 11 15 mph 1007.8mb 40f 65f
2:30 11 20 mph 1007.9mb 40f 65f
2:24 11 24 mph 1007.8mb 40f 65f
2:18 20 29 mph 1007.8mb 40f 65f
2:12 22 29 mph 1007.9mb 40f 65f
2:06 16 20 mph 1007.8mb 40f 65f
2:00 11 20 mph 1007.8mb 40f 65f
1:54 13 18 mph 1007.8mb 40f 65f
1:48 9 17 mph 1007.8mb 40f 66f
1:42 10 17 mph 1007.9mb 40f 66f
1:36 13 20 mph 1008mb 40f 66f
1:30 13 21 mph 1008mb 40f 66f
1:24 18 23 mph 1008mb 40f 66f
1:18 14 23 mph 1008.1mb 40f 66f
1:12 15 24 mph 1008.2mb 40f 65f
1:06 13 18 mph 1008.2mb 40f 66f
1:00 13 20 mph 1008.4mb 40f 65f
12:54 11 15 mph 1008.3mb 40f 57f
12:48 14 18 mph 1008.5mb 40f 65f
12:42 8 14 mph 1008.5mb 40f 65f
12:36 11 20 mph 1008.7mb 40f 65f
12:30 13 22 mph 1008.9mb 40f 65f
12:24 15 20 mph 1009mb 40f 65f
12:18 10 21 mph 1009mb 40f 65f
12:12 14 18 mph 1009.1mb 40f 64f
12:06 11 16 mph 1009.2mb 40f 64f
12:00 11 16 mph 1009.3mb 40f 63f
11:54 15 20 mph 1009.5mb 40f 63f
11:48 15 20 mph 1009.6mb 40f 63f
11:42 7 15 mph 1009.6mb 40f 59f
11:36 9 14 mph 1009.7mb 40f 55f
11:30 9 13 mph 1010mb 40f 53f
11:24 8 10 mph 1010.2mb 40f 53f
11:18 9 15 mph 1010.3mb 40f 52f
11:12 10 13 mph 1010.4mb 40f 52f
11:06 9 14 mph 1010.6mb 40f 52f
11:00 10 11 mph 1010.7mb 40f 51f
10:54 9 11 mph 1010.7mb 40f 52f
10:48 10 13 mph 1010.8mb 40f 51f
10:42 10 13 mph 1010.8mb 40f 50f
10:36 9 11 mph 1010.9mb 40f 50f
10:30 10 13 mph 1010.9mb 40f 50f
10:24 8 11 mph 1011mb 40f 49f
10:18 9 11 mph 1010.9mb 40f 48f
10:12 10 11 mph 1011mb 40f 47f
10:06 9 10 mph 1011.1mb 40f 46f
10:00 9 13 mph 1011.2mb 40f 46f
9:54 9 11 mph 1011.2mb 40f 45f
9:48 9 11 mph 1011.2mb 40f 45f
9:42 9 11 mph 1011.2mb 40f 44f
9:36 10 11 mph 1011.2mb 40f 44f
9:30 9 13 mph 1011.3mb 40f 43f
9:24 10 11 mph 1011.3mb 40f 43f
9:18 9 11 mph 1011.3mb 40f 42f
9:12 10 11 mph 1011.3mb 40f 42f
9:06 10 13 mph 1011.3mb 40f 42f
9:00 9 11 mph 1011.3mb 40f 42f
8:54 9 11 mph 1011.4mb 40f 42f
8:48 9 11 mph 1011.4mb 40f 42f
8:42 9 11 mph 1011.4mb 40f 42f
8:36 8 10 mph 1011.5mb 40f 42f
8:30 8 11 mph 1011.5mb 39f 42f
8:24 8 11 mph 1011.5mb 39f 41f
8:18 9 11 mph 1011.4mb 39f 41f
8:12 9 10 mph 1011.3mb 39f 41f
8:06 7 8 mph 1011.3mb 39f 41f
8:00 7
mph
1011.3mb 39f 41f
7:54 6 8 mph 1011.2mb 39f 41f
7:48 7 8 mph 1011.2mb 39f 41f
7:42 6 7 mph 1011.1mb 39f 41f
7:36 5 7 mph 1011.1mb 39f 41f
7:30 6
mph
1011mb 39f 41f
7:24 5 6 mph 1011mb 39f 40f
7:18 3 5 mph 1011.1mb 39f 40f
7:12 5 6 mph 1011.1mb 39f 40f
7:06 5 7 mph 1011.1mb 39f 40f
7:00 6 7 mph 1011.1mb 39f 40f
6:54 6 7 mph 1011mb 39f 40f
6:48 5 6 mph 1011mb 39f 40f
6:42 5 6 mph 1011mb 39f 39f
6:36 5 7 mph 1011mb 39f 39f
6:30 5 7 mph 1011mb 39f 39f
6:24 5 7 mph 1010.9mb 39f 39f
6:18 6
mph
1010.8mb 39f 39f
6:12 5 6 mph 1010.9mb 39f 39f
6:06 5
mph
1010.8mb 39f 39f
6:00 3 5 mph 1010.8mb 39f 39f
5:54 3 5 mph 1010.8mb 39f 39f
5:48 3
mph
1010.8mb 39f 39f
5:42 2
mph
1010.8mb 39f 39f
5:36 1 2 mph 1010.8mb 39f 39f
5:30 2 3 mph 1010.8mb 39f 39f
5:24 2 6 mph 1010.9mb 39f 39f
5:18 6
mph
1010.8mb 39f 39f
5:12 5
mph
1010.8mb 39f 39f
5:06 2 3 mph 1010.9mb 39f 39f
5:00 2 5 mph 1011mb 39f 39f
2:54 2 3 mph 1011.1mb 40f 39f
2:48 2
mph
1011.1mb 40f 39f
1:54 2 3 mph 1011.2mb 40f 40f
1:48 2 6 mph 1011.1mb 40f 40f
12:54 3 5 mph 1011.3mb 39f 40f
12:48 5 7 mph 1011.2mb 39f 40f
mer. 02/22 11:54 3
mph
1011.5mb 40f 41f
11:48 2 3 mph 1011.6mb 40f 41f
10:54 5
mph
1011.4mb 40f 41f
10:48 5 7 mph 1011.4mb 40f 41f
9:54 5 7 mph 1011.5mb 40f 42f
9:48 6 8 mph 1011.6mb 40f 42f
8:54 6 7 mph 1011.9mb 39f 42f
8:48 5 6 mph 1011.9mb 39f 42f
7:54 3 8 mph 1011.7mb 39f 43f
7:48 7 8 mph 1011.6mb 39f 43f
6:54 5 6 mph 1011.7mb 39f 45f
6:48 6 8 mph 1011.7mb 39f 45f
5:54 7 8 mph 1011.5mb 39f 47f
5:48 6 9 mph 1011.5mb 39f 47f
4:54 7 8 mph 1011.4mb 39f 48f
4:48 7 8 mph 1011.4mb 39f 48f
3:54 10 13 mph 1010.9mb 39f 53f
3:48 8 9 mph 1010.9mb 39f 53f
2:54 6 10 mph 1011.2mb 39f 53f
2:48 8 10 mph 1011.3mb 39f 52f
1:54 6 7 mph 1012mb 39f 49f
1:48 5 6 mph 1012.1mb 39f 50f
12:54 3 9 mph 1012.9mb 39f 52f
12:48 8 9 mph 1013mb 39f 52f
11:54 7 9 mph 1013.7mb 39f 49f
11:48 6 8 mph 1013.8mb 39f 49f
10:54 5 10 mph 1014.6mb 39f 47f
10:48 5 11 mph 1014.7mb 39f 47f
9:54 8 11 mph 1015.5mb 39f 46f
9:48 7 10 mph 1015.6mb 39f 46f
8:54 8 11 mph 1016mb 39f 44f
8:48 6 10 mph 1016.1mb 39f 44f
7:54 7 9 mph 1016.4mb 39f 41f
7:48 8 10 mph 1016.4mb 39f 41f
5:54 3 5 mph 1016.5mb 39f 40f
5:48 3 6 mph 1016.6mb 39f 40f
5:42 3 6 mph 1016.7mb 39f 40f
5:36 2 5 mph 1016.6mb 39f 39f
5:30 3 5 mph 1016.6mb 39f 39f
5:24 3 5 mph 1016.7mb 39f 39f
5:18 3 5 mph 1016.6mb 39f 39f
5:12 3 5 mph 1016.7mb 39f 39f
5:06 5 6 mph 1016.7mb 39f 39f
5:00 5
mph
1016.7mb 39f 39f
4:54 5 6 mph 1016.7mb 39f 38f
4:48 2 3 mph 1016.8mb 39f 38f
4:42 3 6 mph 1016.7mb 39f 38f
4:36 5
mph
1016.7mb 39f 38f
4:30 3 5 mph 1016.8mb 39f 38f
4:24 3 5 mph 1016.8mb 39f 38f
4:18 5 6 mph 1016.8mb 39f 38f
4:12 6 7 mph 1016.8mb 39f 38f
4:06 6 7 mph 1017mb 39f 38f
4:00 6
mph
1017mb 39f 38f
3:54 5 6 mph 1017.1mb 39f 38f
3:48 5 6 mph 1017.2mb 39f 38f
3:42 5 6 mph 1017.3mb 39f 38f
3:36 5 6 mph 1017.4mb 39f 38f
3:30 5 7 mph 1017.4mb 39f 38f
3:24 5 7 mph 1017.4mb 39f 38f
3:18 5 6 mph 1017.4mb 39f 38f
3:12 5 7 mph 1017.5mb 39f 38f
3:06 5 7 mph 1017.5mb 39f 38f
3:00 6 8 mph 1017.5mb 39f 37f
2:54 5 7 mph 1017.6mb 39f 37f
2:48 5 6 mph 1017.5mb 39f 37f
2:42 5 6 mph 1017.5mb 39f 37f
2:36 5 6 mph 1017.5mb 39f 37f
2:30 5 6 mph 1017.6mb 39f 37f
2:24 5 7 mph 1017.8mb 39f 38f
2:18 3 6 mph 1017.8mb 39f 37f
2:12 5 7 mph 1017.7mb 39f 37f
2:06 6 8 mph 1017.7mb 39f 37f
2:00 5 7 mph 1017.7mb 39f 37f
1:54 6 8 mph 1017.6mb 39f 37f
1:48 6 8 mph 1017.8mb - -
1:42 7 8 mph 1017.8mb - -
1:36 6 8 mph 1017.9mb - -
1:30 6 8 mph 1018.1mb 38f 37f
1:24 6 10 mph 1018.2mb 38f 37f
1:18 6 8 mph 1018.2mb 38f 37f
1:12 6 7 mph 1018.4mb 38f 37f
1:06 6 9 mph 1018.4mb 38f 37f
1:00 7 9 mph 1018.4mb 38f 38f
12:54 6 8 mph 1018.7mb 38f 38f
12:48 6 9 mph 1018.7mb 38f 38f
12:42 6 10 mph 1018.8mb 38f 38f
12:36 7 10 mph 1018.8mb 38f 38f
12:30 7 9 mph 1019mb 38f 38f
12:24 6 10 mph 1019.1mb 38f 38f
12:18 8 10 mph 1019.1mb 38f 37f
12:12 6 8 mph 1019.3mb 38f 37f
12:06 6 8 mph 1019.4mb 38f 37f
12:00 6 8 mph 1019.6mb 38f 37f
mar. 02/21 11:54 6 10 mph 1019.6mb 38f 37f
11:48 7 10 mph 1019.3mb 38f 38f
11:42 7 10 mph 1019.5mb 38f 38f
11:36 8 10 mph 1019.7mb 38f 38f
11:30 6 9 mph 1019.8mb 38f 38f
11:24 8 10 mph 1019.7mb 38f 37f
11:18 5 8 mph 1019.7mb 39f 37f
11:12 7 9 mph 1019.8mb 39f 37f
11:06 6 9 mph 1020mb 39f 37f
11:00 5 8 mph 1020.2mb 39f 37f
10:54 7 8 mph 1020.3mb 39f 37f
10:48 6 8 mph 1020.4mb 39f 37f
10:42 6 8 mph 1020.5mb 39f 37f
10:36 6 8 mph 1020.5mb 39f 37f
10:30 7 8 mph 1020.6mb 39f 37f
10:24 5 6 mph 1020.7mb 39f 37f
10:18 5 9 mph 1020.8mb 39f 37f
10:12 5 7 mph 1020.9mb 39f 37f
10:06 5 6 mph 1021mb 39f 37f
10:00 5 7 mph 1021.1mb 39f 38f
9:54 5 7 mph 1021.2mb 39f 38f
9:48 3 8 mph 1021.3mb 39f 38f
9:42 5 7 mph 1021.3mb 39f 38f
9:36 3 8 mph 1021.2mb 39f 38f
9:30 6 8 mph 1021.2mb 39f 38f
9:24 7 8 mph 1021.1mb 39f 38f
9:18 8 9 mph 1021.1mb 39f 38f
9:12 7 9 mph 1021.1mb 39f 38f
9:06 7 9 mph 1021.2mb 38f 38f
9:00 7 10 mph 1021.3mb 38f 38f
8:54 5 7 mph 1021.4mb 38f 38f
8:48 7 8 mph 1021.4mb 38f 38f
8:42 8 9 mph 1021.7mb 38f 38f
8:36 6 9 mph 1021.8mb 38f 38f
8:30 7 13 mph 1021.9mb 38f 38f
8:24 6 9 mph 1021.8mb 38f 38f
8:18 7 10 mph 1022.1mb 38f 38f
8:12 9 11 mph 1022.3mb 38f 39f
8:06 10 14 mph 1022.4mb 38f 39f
8:00 6 14 mph 1022.4mb 38f 39f
7:54 9 15 mph 1022.3mb 38f 39f
7:48 10 14 mph 1022.4mb 38f 39f
7:42 11 15 mph 1022.4mb 38f 39f
7:36 11 14 mph 1022.4mb 38f 39f
7:30 8 16 mph 1022.1mb 38f 39f
7:24 8 13 mph 1022.1mb 38f 39f
7:18 10 15 mph 1021.9mb 38f 39f
7:12 8 15 mph 1021.7mb 38f 39f
7:06 9 14 mph 1021.9mb 38f 39f
7:00 7 13 mph 1022.2mb 38f 40f
6:54 10 13 mph 1022.3mb 38f 40f
6:48 7 11 mph 1022.4mb 38f 40f
6:42 8 13 mph 1022.1mb 38f 40f
6:36 8 10 mph 1022.1mb 38f 40f
6:30 9 11 mph 1022.2mb 38f 40f
6:24 8 11 mph 1022.4mb 38f 40f
6:18 8 11 mph 1022.5mb 38f 40f
6:12 8 10 mph 1022.7mb 38f 40f
6:06 8 11 mph 1022.8mb 38f 40f
6:00 10 14 mph 1022.9mb 38f 40f
5:54 10 14 mph 1022.9mb 38f 40f
5:48 8 11 mph 1022.9mb 37f 40f
5:42 8 13 mph 1022.8mb 37f 40f
5:36 11 15 mph 1022.7mb 37f 40f
5:30 9 13 mph 1022.6mb 37f 40f
5:24 10 13 mph 1022.5mb 38f 40f
5:18 9 13 mph 1022.6mb 38f 40f
5:12 9 13 mph 1022.6mb 38f 40f
5:06 13 15 mph 1022.6mb 38f 40f
5:00 11 14 mph 1022.6mb 38f 41f
4:54 11 14 mph 1022.7mb 38f 41f
4:48 8 14 mph 1022.9mb 38f 41f
4:42 8 14 mph 1022.8mb 38f 41f
4:36 10 14 mph 1022.8mb 38f 41f
4:30 10 14 mph 1022.9mb 38f 41f
4:24 11 15 mph 1022.9mb 38f 41f
4:18 11 16 mph 1022.9mb 38f 41f
4:12 13 16 mph 1022.8mb 38f 41f
4:06 13 16 mph 1022.8mb 38f 41f
4:00 11 15 mph 1022.9mb 38f 41f
3:54 14 15 mph 1023mb 38f 41f
3:48 10 13 mph 1023mb 38f 41f
3:42 9 13 mph 1023.1mb 38f 42f
3:36 13 15 mph 1023.2mb 38f 42f
3:30 11 14 mph 1023.3mb 38f 42f
3:24 13 14 mph 1023.4mb 38f 42f
3:18 11 14 mph 1023.5mb 38f 42f
3:12 13 15 mph 1023.5mb 38f 42f
3:06 13 15 mph 1023.5mb 38f 42f
3:00 10 14 mph 1023.5mb 38f 42f
2:54 13 15 mph 1023.7mb 38f 42f
2:48 13 15 mph 1023.6mb 38f 42f
2:42 11 15 mph 1023.8mb 38f 42f
2:36 13 14 mph 1023.7mb 38f 43f
2:30 10 11 mph 1023.8mb 38f 43f
2:24 9 10 mph 1024.1mb 38f 44f
2:18 8 9 mph 1024.1mb 38f 43f
2:12 9
mph
1024mb 38f 43f
2:06 7 9 mph 1024mb 38f 42f
2:00 9 10 mph 1024mb 38f 42f
1:54 9 11 mph 1024.1mb 38f 43f
1:48 9 10 mph 1024.2mb 38f 42f
1:42 7 9 mph 1024.1mb 38f 42f
1:36 6 8 mph 1024.3mb 38f 42f
1:30 7 8 mph 1024.4mb 38f 42f
1:24 7 8 mph 1024.5mb 37f 42f
1:18 7 9 mph 1024.6mb 37f 42f
1:12 7 9 mph 1024.7mb 37f 42f
1:06 6 8 mph 1024.9mb 37f 41f
1:00 6 8 mph 1024.9mb 37f 41f
12:54 7 9 mph 1025.1mb 37f 41f
12:48 9
mph
1025.2mb 37f 41f
12:42 8 9 mph 1025.4mb 37f 41f
12:36 8 9 mph 1025.7mb 37f 41f
12:30 6 7 mph 1025.8mb 37f 41f
12:24 6 7 mph 1025.8mb 37f 41f
12:18 6 8 mph 1025.9mb 37f 40f
12:12 6 7 mph 1026mb 37f 40f
12:06 6
mph
1026.1mb 37f 40f
12:00 5 6 mph 1026.2mb 37f 40f
11:54 5 6 mph 1026.2mb 37f 40f
11:48 2 5 mph 1026.3mb 37f 41f
11:42 2 5 mph 1026.4mb 37f 41f
11:36 1 3 mph 1026.5mb 37f 41f
11:30 3 6 mph 1026.7mb 37f 40f
11:24 3 5 mph 1026.8mb 37f 40f
11:18 3 5 mph 1026.8mb 37f 40f
11:12 3 5 mph 1026.9mb 37f 40f
11:06 3 5 mph 1027.1mb 37f 40f
11:00 1 2 mph 1027.2mb 37f 39f
10:54 2
mph
1027.3mb 37f 40f
10:48  -  5 mph 1027.4mb 37f 41f
10:42 2 5 mph 1027.5mb 37f 40f
10:36 1 2 mph 1027.2mb 37f 39f
10:30 1 2 mph 1027.1mb 37f 38f
10:24 2
mph
1027.2mb 37f 38f
10:18  -  2 mph 1027.3mb 37f 39f
10:12  -  1 mph 1027.4mb 37f 39f
10:06  -  2 mph 1027.4mb 37f 39f
10:00  -  2 mph 1027.4mb 37f 38f
9:54 1 3 mph 1027.5mb 37f 37f
9:48  -  3 mph 1027.5mb 37f 37f
9:42 1 5 mph 1027.5mb 37f 37f
9:36 2 5 mph 1027.8mb 37f 36f
9:30 3 5 mph 1027.9mb 37f 36f
9:24 2 3 mph 1028.1mb 37f 36f
9:18 3 6 mph 1028.1mb 37f 35f
9:12 2 5 mph 1028.2mb 37f 35f
9:06 1 3 mph 1028.4mb 37f 35f
9:00 1 3 mph 1028.4mb 37f 35f
8:54 1 5 mph 1028.3mb 37f 34f
8:48 2 3 mph 1028.2mb 37f 34f
8:42  -  3 mph 1028.2mb 37f 34f
8:36 2 5 mph 1028.1mb 37f 34f
8:30 2 5 mph 1028.3mb 37f 36f
8:24 2 7 mph 1028.1mb 37f 37f
8:18 2 6 mph 1028.1mb 37f 35f
8:12 3 7 mph 1028.2mb 37f 34f
8:06 5 7 mph 1028.3mb 37f 34f
8:00 3 6 mph 1028.3mb 37f 34f
7:54 3 7 mph 1028.3mb 37f 33f
7:48 2 6 mph 1028.4mb 37f 33f
7:42 2 6 mph 1028.4mb 37f 33f
7:36 2 3 mph 1028.5mb 37f 33f
7:30 3 5 mph 1028.6mb 37f 32f
7:24 3 5 mph 1028.6mb 37f 32f
7:18 2 6 mph 1028.5mb 37f 31f
7:12 2 5 mph 1028.4mb 37f 31f
7:06 3 6 mph 1028.3mb 37f 31f
7:00 5 6 mph 1028.2mb 37f 31f
6:54 3 6 mph 1028.3mb 37f 30f
6:48 5 7 mph 1028.2mb 37f 30f
6:42 3 5 mph 1028.2mb 37f 30f
6:36 3 5 mph 1028.2mb 37f 30f
6:30 3 5 mph 1028mb 37f 29f
6:24 2 5 mph 1028mb 37f 29f
6:18 2 5 mph 1028mb 37f 29f
6:12 3 6 mph 1028mb 37f 30f
6:06 5
mph
1027.9mb 37f 30f
6:00 5
mph
1027.9mb 37f 30f
5:54 2 6 mph 1027.7mb 37f 30f
5:48 3 7 mph 1027.7mb 37f 31f
5:42 6 8 mph 1027.7mb 37f 31f
5:36 3 5 mph 1027.6mb 37f 31f
5:30 1 5 mph 1027.5mb 37f 31f
5:24  -  7 mph 1027.5mb 37f 31f
5:18 3 7 mph 1027.6mb 37f 31f
5:12 3 7 mph 1027.5mb 37f 31f
5:06 3 7 mph 1027.7mb 37f 31f
5:00 6 8 mph 1027.6mb 37f 31f
4:54 7 9 mph 1027.6mb 37f 31f
4:48 6 10 mph 1027.7mb 37f 31f
4:42 5 8 mph 1027.8mb 37f 31f
4:36 3 8 mph 1027.7mb 37f 31f
4:30  -  8 mph 1027.6mb 37f 31f
4:24 2 5 mph 1027.7mb 37f 31f
4:18 5 8 mph 1027.6mb 37f 31f
4:12 7 10 mph 1027.5mb 37f 32f
4:06 6 9 mph 1027.5mb 37f 31f
4:00 5 8 mph 1027.4mb 38f 31f
3:54 3 10 mph 1027.5mb 38f 32f
3:48 5 9 mph 1027.6mb 38f 32f
3:42 7 9 mph 1027.7mb 38f 32f
3:36 7 9 mph 1027.7mb 38f 32f
3:30 6 9 mph 1027.6mb 38f 32f
3:24 5 8 mph 1027.6mb 38f 32f
3:18 3 7 mph 1027.6mb 38f 32f
3:12 3 5 mph 1027.7mb 38f 32f
3:06 5 7 mph 1027.7mb 38f 32f
3:00 3 7 mph 1027.7mb 38f 32f
2:54 5 9 mph 1027.7mb 38f 32f
2:48 6 9 mph 1027.6mb 38f 33f
2:42 5 7 mph 1027.6mb 38f 32f
2:36 5 7 mph 1027.5mb 38f 33f
2:30 5 7 mph 1027.4mb 38f 33f
2:24 5 7 mph 1027.5mb 38f 33f
2:18 5 8 mph 1027.5mb 38f 33f
2:12 5 7 mph 1027.4mb 38f 33f
2:06 5 8 mph 1027.3mb 38f 33f
2:00 6 8 mph 1027.3mb 38f 33f
1:54 3 7 mph 1027mb 38f 33f
1:48 2 7 mph 1027mb 38f 33f
1:42 3 7 mph 1027mb 38f 33f
1:36 2 7 mph 1027mb 38f 33f
1:30 3 8 mph 1027mb 38f 33f
1:24 5 10 mph 1027mb 38f 33f
1:18 3 9 mph 1027.1mb 38f 33f
1:12 5 10 mph 1027.1mb 38f 33f
1:06 3 10 mph 1027.1mb 38f 34f
1:00 3 8 mph 1027.1mb 38f 34f
12:54 3 11 mph 1027.1mb 38f 34f
12:48 3 8 mph 1027mb 38f -
12:42 3 10 mph 1027.1mb 38f -
12:36 5 10 mph 1027.2mb 37f -
12:30 6 10 mph 1027.2mb 37f 35f
12:24 5 10 mph 1027.3mb 37f 35f
12:18 7 10 mph 1027.4mb 37f 35f
12:12 7 13 mph 1027.4mb 37f 35f
12:06 7 10 mph 1027.4mb 37f 35f
12:00 6 11 mph 1027.4mb 37f 35f
lun. 02/20 11:54 7 14 mph 1027.3mb 37f 35f
11:48 8 11 mph 1027.2mb 37f 35f
11:42 8 11 mph 1027.2mb 37f 35f
11:36 8 13 mph 1027mb 37f 36f
11:30 6 10 mph 1027mb 37f 36f
11:24 7 11 mph 1027mb 37f 36f
11:18 5 14 mph 1027mb 37f 36f
11:12 10 15 mph 1026.9mb 37f 36f
11:06 8 15 mph 1027mb 37f 36f
11:00 9 14 mph 1026.9mb 37f 36f
10:54 9 14 mph 1026.9mb 37f 36f
10:48 9 13 mph 1026.9mb 37f 36f
10:42 8 11 mph 1026.8mb 37f 36f
10:36 8 14 mph 1026.8mb 37f 36f
10:30 8 14 mph 1026.6mb 37f 37f
10:24 9 13 mph 1026.6mb 37f 37f
10:18 9 15 mph 1026.6mb 37f 37f
10:12 9 16 mph 1026.6mb 37f 37f
10:06 10 16 mph 1026.5mb 37f 37f
10:00 10 13 mph 1026.5mb 37f 37f
9:54 7 9 mph 1026.5mb 37f 37f
9:48 9 11 mph 1026.6mb 37f 37f
9:42 8 14 mph 1026.5mb 37f 37f
9:36 9 11 mph 1026.5mb 37f 38f
9:30 8 10 mph 1026.5mb 37f 38f
9:24 7 13 mph 1026.3mb 37f 38f
9:18 7 9 mph 1026.4mb 37f 38f
9:12 6 9 mph 1026.4mb 37f 38f
9:06 8 13 mph 1026.2mb 37f 38f
9:00 8 10 mph 1026.2mb 37f 38f
8:54 8 13 mph 1026.2mb 37f 38f
8:48 8 13 mph 1026.2mb 37f 38f
8:42 8 14 mph 1026.1mb 37f 39f
8:36 9 14 mph 1025.9mb 37f 39f
8:30 9 14 mph 1025.8mb 37f 39f
8:24 9 14 mph 1025.8mb 37f 39f
8:18 9 13 mph 1025.7mb 37f 39f
8:12 8 14 mph 1025.6mb 37f 39f
8:06 10 14 mph 1025.5mb 37f 39f
8:00 8 13 mph 1025.5mb 37f 40f
7:54 7 14 mph 1025.4mb 37f 40f
7:48 9 14 mph 1025.3mb 37f 40f
7:42 9 13 mph 1025.3mb 37f 40f
7:36 8 14 mph 1025.2mb 37f 40f
7:30 9 15 mph 1025.1mb 37f 40f
7:24 8 14 mph 1025.1mb 37f 40f
7:18 8 15 mph 1025mb 37f 40f
7:12 7 11 mph 1024.9mb 37f 40f
7:06 9 15 mph 1024.9mb 37f 40f
7:00 8 16 mph 1024.9mb 37f 40f
6:54 8 16 mph 1024.9mb 37f 40f
6:48 5 9 mph 1024.6mb 37f 41f
6:42 3 10 mph 1024.6mb 37f 41f
6:36 3 10 mph 1024.6mb 37f 41f
6:30 3 8 mph 1024.5mb 37f 41f
6:24 6 13 mph 1024.5mb 37f 41f
6:18 5 13 mph 1024.4mb 37f 41f
6:12 7 13 mph 1024.4mb 37f 41f
6:06 6 10 mph 1024.3mb 37f 42f
6:00 7 10 mph 1024.1mb 37f 42f
5:54 3 8 mph 1023.9mb 37f 42f
5:48 3 8 mph 1023.9mb - -
5:42 6 10 mph 1023.6mb 37f 42f
5:36 5 13 mph 1023.4mb 37f 42f
5:30 6 11 mph 1023.3mb 37f 42f
5:24 3 11 mph 1023mb 37f 43f
5:18 6 13 mph 1022.8mb 37f 43f
5:12 9 16 mph 1022.6mb 37f 44f
5:06 7 15 mph 1022.4mb 37f 44f
5:00 6 16 mph 1022.2mb 37f 44f
4:54 10 15 mph 1021.9mb 37f 44f
4:48 5 15 mph 1021.8mb 37f 44f
4:42 3 17 mph 1021.6mb 37f 44f
4:36 3 14 mph 1021.4mb 37f 45f
4:30 6 14 mph 1021.3mb 37f 45f
4:24 7 15 mph 1021.2mb 37f 45f
4:18 7 14 mph 1021.1mb 37f 45f
4:12 8 13 mph 1020.9mb 37f 45f
4:06 7 13 mph 1020.9mb 37f 45f
4:00 6 14 mph 1020.9mb 38f 45f
3:54 6 16 mph 1020.7mb 38f 45f
3:48 10 17 mph 1020.6mb 38f 45f
3:42 14 18 mph 1020.6mb 38f 46f
3:36 13 17 mph 1020.5mb 38f 46f
3:30 9 16 mph 1020.5mb 38f 46f
3:24 10 18 mph 1020.5mb 38f 46f
3:18 6 14 mph 1020.5mb 38f 46f
3:12 11 16 mph 1020.4mb 38f 46f
3:06 9 14 mph 1020.4mb 38f 46f
3:00 6 15 mph 1020.3mb 38f 46f
2:54 3 17 mph 1020.2mb 38f 46f
2:48 5 14 mph 1020.2mb 38f 46f
2:42 7 16 mph 1020.2mb 38f 46f
2:36 14 18 mph 1020.1mb 38f 46f
2:30 8 15 mph 1020mb 38f 46f
2:24 6 21 mph 1019.9mb 38f 46f
2:18 14 18 mph 1019.8mb 38f 46f
2:12 15 20 mph 1019.8mb 38f 45f
2:06 7 21 mph 1019.8mb 38f 46f
2:00 10 17 mph 1019.8mb 38f 46f
1:54 8 18 mph 1019.6mb 38f 46f
1:48 9 16 mph 1019.6mb 38f 46f
1:42 13 17 mph 1019.5mb 38f 45f
1:36 5 15 mph 1019.5mb 38f 46f
1:30 10 17 mph 1019.5mb 38f 46f
1:24 10 16 mph 1019.5mb 38f 46f
1:18 9 14 mph 1019.5mb 38f 45f
1:12 10 21 mph 1019.5mb 38f 46f
1:06 17 23 mph 1019.4mb 37f 45f
1:00 11 18 mph 1019.5mb 37f 45f
12:54 11 16 mph 1019.6mb 37f 45f
12:48 8 20 mph 1019.8mb 37f 45f
12:42 9 21 mph 1019.8mb 37f 45f
12:36 13 18 mph 1019.7mb 37f 44f
12:30 10 15 mph 1019.7mb 37f 45f
12:24 5 15 mph 1019.7mb 37f 45f
12:18 7 16 mph 1019.6mb 37f 45f
12:12 7 16 mph 1019.6mb 37f 45f
12:06 11 17 mph 1019.7mb 37f 44f
12:00 8 14 mph 1019.6mb 37f 44f
11:54 5 15 mph 1019.7mb 37f 44f
11:48 7 17 mph 1019.8mb 37f 44f
11:42 3 11 mph 1019.7mb 37f 44f
11:36 9 15 mph 1019.8mb 37f 44f
11:30 5 15 mph 1019.8mb 37f 44f
11:24 8 14 mph 1019.7mb 37f 44f
11:18 7 17 mph 1019.7mb 37f 44f
11:12 10 15 mph 1019.7mb 37f 43f
11:06 6 14 mph 1019.8mb 37f 44f
11:00 13 17 mph 1019.8mb 37f 43f
10:54 9 16 mph 1019.7mb 37f 43f
10:48 9 15 mph 1019.6mb 37f 43f
10:42 10 18 mph 1019.6mb 37f 43f
10:36 14 18 mph 1019.6mb 37f 43f
10:30 14 20 mph 1019.7mb 37f 43f
10:24 9 15 mph 1019.7mb 37f 43f
10:18 14 17 mph 1019.7mb 37f 43f
10:12 11 17 mph 1019.7mb 37f 43f
10:06 13 18 mph 1019.6mb 37f 43f
10:00 9 16 mph 1019.6mb 37f 43f
9:54 10 16 mph 1019.6mb 37f 42f
9:48 14 17 mph 1019.5mb 37f 42f
9:42 10 17 mph 1019.6mb 37f 42f
9:36 13 18 mph 1019.5mb 37f 42f
9:30 15 22 mph 1019.4mb 37f 42f
9:24 13 17 mph 1019.4mb 37f 42f
9:18 9 14 mph 1019.5mb 37f 42f
9:12 7 14 mph 1019.6mb 37f 42f
9:06 6 15 mph 1019.6mb 37f 42f
9:00 7 17 mph 1019.5mb 37f 41f
8:54 8 15 mph 1019.5mb 37f 41f
8:48 8 16 mph 1019.5mb 37f 42f
8:42 8 16 mph 1019.5mb 37f 42f
8:36 10 17 mph 1019.4mb 37f 41f
8:30 8 17 mph 1019.3mb 37f 41f